Time;durP1;ratioP1;P1;durP2;ratioP2;P2;SDS_P1;SDS_P2;PMS_P1;PMS_P2;Temp;Humidity;BMP_temperature;BMP_pressure;BME280_temperature;BME280_humidity;BME280_pressure;Samples;Min_cycle;Max_cycle;Signal;HPM_P1;HPM_P2
2023/12/23 00:01:37;;;;;;;7.13;5.17;;;;;;;;;;5062343;27;89614;-66
2023/12/23 00:04:05;;;;;;;11.27;4.93;;;;;;;;;;5062933;27;89167;-66
2023/12/23 00:06:37;;;;;;;7.00;4.43;;;;;;;;;;5057419;27;88865;-68
2023/12/23 00:09:05;;;;;;;5.60;4.63;;;;;;;;;;5038420;28;87610;-66
2023/12/23 00:11:34;;;;;;;8.07;5.10;;;;;;;;;;5044597;27;89599;-67
2023/12/23 00:14:03;;;;;;;10.90;4.70;;;;;;;;;;5059794;27;89308;-67
2023/12/23 00:16:31;;;;;;;8.57;4.83;;;;;;;;;;5054746;27;90029;-66
2023/12/23 00:18:59;;;;;;;14.13;5.43;;;;;;;;;;5058726;27;88737;-67
2023/12/23 00:21:28;;;;;;;7.27;4.53;;;;;;;;;;5065497;27;89685;-67
2023/12/23 00:23:58;;;;;;;6.97;4.23;;;;;;;;;;5062419;27;89966;-67
2023/12/23 00:26:26;;;;;;;10.33;4.77;;;;;;;;;;5059206;27;88437;-67
2023/12/23 00:28:54;;;;;;;6.43;4.17;;;;;;;;;;5050476;27;88560;-67
2023/12/23 00:31:23;;;;;;;7.83;4.30;;;;;;;;;;5053494;27;89640;-67
2023/12/23 00:33:52;;;;;;;5.07;4.57;;;;;;;;;;5056911;27;89246;-67
2023/12/23 00:36:21;;;;;;;7.87;4.30;;;;;;;;;;5058161;27;88806;-67
2023/12/23 00:38:50;;;;;;;7.40;4.10;;;;;;;;;;5057074;27;87479;-67
2023/12/23 00:41:19;;;;;;;8.87;4.60;;;;;;;;;;5058334;27;89628;-67
2023/12/23 00:43:48;;;;;;;11.37;5.00;;;;;;;;;;5058252;27;89287;-67
2023/12/23 00:46:17;;;;;;;6.77;4.33;;;;;;;;;;5057926;27;90561;-67
2023/12/23 00:48:46;;;;;;;6.70;3.77;;;;;;;;;;5057808;27;88506;-67
2023/12/23 00:51:15;;;;;;;7.50;4.53;;;;;;;;;;5058125;27;89857;-67
2023/12/23 00:53:43;;;;;;;7.00;4.20;;;;;;;;;;5057895;27;89103;-67
2023/12/23 00:56:22;;;;;;;6.83;4.17;;;;;;;;;;5057440;27;88936;-67
2023/12/23 00:58:51;;;;;;;9.20;4.73;;;;;;;;;;5058238;27;87443;-67
2023/12/23 01:01:21;;;;;;;7.77;5.20;;;;;;;;;;5054995;27;89795;-66
2023/12/23 01:03:49;;;;;;;6.77;4.33;;;;;;;;;;5057497;27;89271;-67
2023/12/23 01:06:18;;;;;;;5.37;3.63;;;;;;;;;;5055636;27;89080;-66
2023/12/23 01:08:47;;;;;;;5.80;4.00;;;;;;;;;;5057404;27;88342;-66
2023/12/23 01:11:16;;;;;;;5.37;3.87;;;;;;;;;;5056570;27;88224;-67
2023/12/23 01:13:46;;;;;;;8.57;4.43;;;;;;;;;;5055957;27;90216;-67
2023/12/23 01:16:14;;;;;;;4.37;3.43;;;;;;;;;;5055190;27;89878;-67
2023/12/23 01:18:43;;;;;;;5.57;3.57;;;;;;;;;;5057500;27;87657;-67
2023/12/23 01:21:12;;;;;;;6.20;3.93;;;;;;;;;;5054332;27;89752;-67
2023/12/23 01:23:41;;;;;;;7.53;4.23;;;;;;;;;;5054117;27;89281;-67
2023/12/23 01:26:10;;;;;;;6.93;4.10;;;;;;;;;;5053498;27;87925;-66
2023/12/23 01:28:39;;;;;;;8.43;4.03;;;;;;;;;;5057554;27;87681;-66
2023/12/23 01:31:10;;;;;;;6.33;3.60;;;;;;;;;;5057737;27;89413;-66
2023/12/23 01:33:39;;;;;;;5.37;3.60;;;;;;;;;;5057263;27;89124;-67
2023/12/23 01:36:08;;;;;;;5.47;4.00;;;;;;;;;;5056884;27;88850;-67
2023/12/23 01:38:38;;;;;;;10.50;4.70;;;;;;;;;;5056873;27;88411;-67
2023/12/23 01:41:06;;;;;;;6.47;4.17;;;;;;;;;;5055353;27;89638;-67
2023/12/23 01:43:35;;;;;;;5.30;3.53;;;;;;;;;;5057150;27;89122;-67
2023/12/23 01:46:03;;;;;;;7.77;3.50;;;;;;;;;;5057299;27;87550;-67
2023/12/23 01:48:35;;;;;;;7.73;3.73;;;;;;;;;;5057559;27;87797;-66
2023/12/23 01:51:03;;;;;;;7.77;3.97;;;;;;;;;;5057030;27;89759;-66
2023/12/23 01:53:34;;;;;;;5.17;3.13;;;;;;;;;;5056574;27;89230;-66
2023/12/23 01:56:02;;;;;;;4.77;3.70;;;;;;;;;;5056785;27;87976;-66
2023/12/23 01:58:32;;;;;;;5.63;3.70;;;;;;;;;;5057281;27;87543;-67
2023/12/23 02:01:00;;;;;;;5.47;3.00;;;;;;;;;;5053693;27;89746;-66
2023/12/23 02:03:29;;;;;;;8.33;3.40;;;;;;;;;;5054186;27;90188;-66
2023/12/23 02:06:01;;;;;;;5.27;3.60;;;;;;;;;;5057057;27;89866;-66
2023/12/23 02:08:29;;;;;;;7.33;3.97;;;;;;;;;;5057295;27;87504;-66
2023/12/23 02:11:01;;;;;;;4.47;2.80;;;;;;;;;;5056618;27;89661;-66
2023/12/23 02:13:30;;;;;;;6.00;3.13;;;;;;;;;;5055183;27;89212;-66
2023/12/23 02:16:00;;;;;;;3.37;2.70;;;;;;;;;;5056318;27;88868;-66
2023/12/23 02:18:31;;;;;;;5.33;3.00;;;;;;;;;;5056639;27;87435;-66
2023/12/23 02:21:01;;;;;;;3.27;2.87;;;;;;;;;;5054363;27;89711;-67
2023/12/23 02:23:29;;;;;;;5.27;3.70;;;;;;;;;;5057161;27;89249;-66
2023/12/23 02:25:59;;;;;;;8.83;2.20;;;;;;;;;;5060879;27;88828;-67
2023/12/23 02:28:29;;;;;;;3.83;2.80;;;;;;;;;;5060387;27;87983;-66
2023/12/23 02:30:57;;;;;;;5.03;2.50;;;;;;;;;;5059884;27;88462;-67
2023/12/23 02:33:26;;;;;;;3.37;2.40;;;;;;;;;;5060534;27;89062;-66
2023/12/23 02:35:54;;;;;;;6.73;3.47;;;;;;;;;;5060854;27;88089;-66
2023/12/23 02:38:24;;;;;;;4.83;2.50;;;;;;;;;;5060270;27;87734;-66
2023/12/23 02:40:53;;;;;;;3.23;2.33;;;;;;;;;;5061008;27;89694;-66
2023/12/23 02:43:22;;;;;;;3.00;2.23;;;;;;;;;;5059845;27;89155;-66
2023/12/23 02:45:50;;;;;;;6.20;2.80;;;;;;;;;;5060427;27;88862;-66
2023/12/23 02:48:18;;;;;;;3.67;2.53;;;;;;;;;;5060676;27;87491;-66
2023/12/23 02:50:47;;;;;;;5.80;2.90;;;;;;;;;;5061006;27;90157;-66
2023/12/23 02:53:19;;;;;;;4.27;2.70;;;;;;;;;;5060207;27;89315;-66
2023/12/23 02:55:50;;;;;;;6.77;3.17;;;;;;;;;;5059760;27;89861;-66
2023/12/23 02:58:20;;;;;;;4.17;2.83;;;;;;;;;;5060998;27;87577;-66
2023/12/23 03:00:48;;;;;;;3.63;2.03;;;;;;;;;;5060121;27;89726;-66
2023/12/23 03:03:18;;;;;;;7.90;2.83;;;;;;;;;;5057790;27;88892;-66
2023/12/23 03:05:46;;;;;;;3.30;2.10;;;;;;;;;;5059838;27;88811;-66
2023/12/23 03:08:15;;;;;;;4.87;2.30;;;;;;;;;;5047730;27;87452;-66
2023/12/23 03:10:44;;;;;;;3.33;2.07;;;;;;;;;;5060259;27;90027;-66
2023/12/23 03:13:15;;;;;;;3.90;3.00;;;;;;;;;;5059925;27;91939;-66
2023/12/23 03:15:46;;;;;;;3.87;2.23;;;;;;;;;;5057711;27;89175;-66
2023/12/23 03:18:15;;;;;;;4.37;2.50;;;;;;;;;;5055014;27;88014;-66
2023/12/23 03:20:43;;;;;;;2.20;1.97;;;;;;;;;;5040082;27;89816;-66
2023/12/23 03:23:12;;;;;;;3.90;2.17;;;;;;;;;;5053004;27;89225;-66
2023/12/23 03:25:41;;;;;;;6.80;2.30;;;;;;;;;;5060363;27;88909;-66
2023/12/23 03:28:14;;;;;;;3.60;2.00;;;;;;;;;;5060265;27;87978;-66
2023/12/23 03:30:48;;;;;;;6.40;2.47;;;;;;;;;;5060303;27;89685;-66
2023/12/23 03:33:19;;;;;;;3.87;2.60;;;;;;;;;;5060263;27;89189;-66
2023/12/23 03:35:47;;;;;;;3.40;2.50;;;;;;;;;;5060277;27;88800;-66
2023/12/23 03:38:15;;;;;;;4.43;2.13;;;;;;;;;;5060441;27;87690;-66
2023/12/23 03:40:45;;;;;;;2.70;1.90;;;;;;;;;;5051365;27;90033;-67
2023/12/23 03:43:13;;;;;;;4.80;2.13;;;;;;;;;;5041385;27;90089;-66
2023/12/23 03:45:42;;;;;;;4.53;2.57;;;;;;;;;;5060095;27;89770;-66
2023/12/23 03:48:12;;;;;;;2.60;1.67;;;;;;;;;;5059607;27;87688;-66
2023/12/23 03:50:40;;;;;;;4.07;2.27;;;;;;;;;;5060063;27;89908;-66
2023/12/23 03:53:11;;;;;;;3.83;1.90;;;;;;;;;;5059774;27;89121;-66
2023/12/23 03:55:43;;;;;;;4.67;2.27;;;;;;;;;;5058740;27;89048;-66
2023/12/23 03:58:13;;;;;;;3.33;1.70;;;;;;;;;;5058993;27;87493;-66
2023/12/23 04:00:43;;;;;;;2.80;1.90;;;;;;;;;;5046854;27;89575;-66
2023/12/23 04:03:13;;;;;;;6.57;2.03;;;;;;;;;;5059140;27;89232;-66
2023/12/23 04:05:41;;;;;;;2.40;1.93;;;;;;;;;;5059590;27;89499;-66
2023/12/23 04:08:10;;;;;;;1.80;1.40;;;;;;;;;;5058624;27;87985;-66
2023/12/23 04:10:39;;;;;;;5.43;2.20;;;;;;;;;;5059270;27;89649;-66
2023/12/23 04:13:08;;;;;;;5.90;1.73;;;;;;;;;;5060577;27;89347;-66
2023/12/23 04:15:36;;;;;;;6.23;1.90;;;;;;;;;;5062758;27;87680;-66
2023/12/23 04:18:06;;;;;;;1.53;1.17;;;;;;;;;;5062489;27;87487;-66
2023/12/23 04:20:36;;;;;;;1.93;1.60;;;;;;;;;;5062786;27;89740;-66
2023/12/23 04:23:04;;;;;;;7.13;2.03;;;;;;;;;;5060720;27;89016;-66
2023/12/23 04:25:33;;;;;;;2.40;1.23;;;;;;;;;;5057382;27;88440;-66
2023/12/23 04:28:02;;;;;;;3.40;1.60;;;;;;;;;;5060270;27;87714;-66
2023/12/23 04:30:31;;;;;;;3.33;1.60;;;;;;;;;;5059016;27;88580;-66
2023/12/23 04:33:00;;;;;;;2.63;1.40;;;;;;;;;;5061112;27;90077;-66
2023/12/23 04:35:28;;;;;;;2.17;1.40;;;;;;;;;;5061422;27;89799;-66
2023/12/23 04:38:03;;;;;;;1.50;1.30;;;;;;;;;;5061676;27;87667;-66
2023/12/23 04:40:32;;;;;;;4.60;1.47;;;;;;;;;;5049672;27;90118;-66
2023/12/23 04:43:00;;;;;;;2.40;1.13;;;;;;;;;;5060491;27;89120;-66
2023/12/23 04:45:30;;;;;;;1.87;1.10;;;;;;;;;;5061195;27;88854;-66
2023/12/23 04:48:01;;;;;;;1.43;1.13;;;;;;;;;;5062433;27;87583;-66
2023/12/23 04:50:30;;;;;;;1.60;1.37;;;;;;;;;;5062111;27;89382;-66
2023/12/23 04:53:00;;;;;;;4.10;1.40;;;;;;;;;;5061573;27;89060;-66
2023/12/23 04:55:28;;;;;;;1.60;1.50;;;;;;;;;;5060611;27;89123;-66
2023/12/23 04:57:56;;;;;;;1.03;0.93;;;;;;;;;;5060333;27;88347;-66
2023/12/23 05:00:28;;;;;;;1.27;0.83;;;;;;;;;;5061264;27;89662;-66
2023/12/23 05:02:57;;;;;;;1.27;0.70;;;;;;;;;;5060588;27;88000;-66
2023/12/23 05:05:26;;;;;;;1.70;1.27;;;;;;;;;;5050860;27;87647;-66
2023/12/23 05:07:54;;;;;;;2.47;1.77;;;;;;;;;;5051470;27;87569;-66
2023/12/23 05:10:24;;;;;;;4.00;1.00;;;;;;;;;;5061481;27;88509;-66
2023/12/23 05:12:52;;;;;;;1.47;1.00;;;;;;;;;;5061519;27;89169;-66
2023/12/23 05:15:21;;;;;;;0.67;0.67;;;;;;;;;;5061117;27;88933;-66
2023/12/23 05:17:52;;;;;;;1.97;1.23;;;;;;;;;;5055552;27;87623;-66
2023/12/23 05:20:23;;;;;;;2.37;0.93;;;;;;;;;;5060815;27;89534;-66
2023/12/23 05:22:52;;;;;;;5.37;1.10;;;;;;;;;;5060314;27;90125;-66
2023/12/23 05:25:23;;;;;;;2.47;1.47;;;;;;;;;;5060761;27;89803;-66
2023/12/23 05:27:57;;;;;;;0.60;0.50;;;;;;;;;;5061581;27;87532;-66
2023/12/23 05:30:27;;;;;;;1.10;0.87;;;;;;;;;;5061056;27;89852;-66
2023/12/23 05:32:58;;;;;;;1.90;1.30;;;;;;;;;;5061235;27;89959;-66
2023/12/23 05:35:26;;;;;;;2.23;1.27;;;;;;;;;;5061600;27;87390;-66
2023/12/23 05:37:56;;;;;;;1.80;1.03;;;;;;;;;;5061590;27;87299;-66
2023/12/23 05:40:28;;;;;;;1.73;0.90;;;;;;;;;;5060581;27;89647;-66
2023/12/23 05:42:57;;;;;;;1.03;0.87;;;;;;;;;;5061086;27;89108;-66
2023/12/23 05:45:26;;;;;;;0.63;0.63;;;;;;;;;;5061006;27;88808;-66
2023/12/23 05:47:54;;;;;;;0.73;0.60;;;;;;;;;;5059899;27;87837;-66
2023/12/23 05:50:23;;;;;;;3.67;0.70;;;;;;;;;;5059871;27;88731;-67
2023/12/23 05:52:53;;;;;;;3.27;0.90;;;;;;;;;;5059880;27;89022;-66
2023/12/23 05:55:22;;;;;;;1.23;0.90;;;;;;;;;;5060331;27;89809;-66
2023/12/23 05:57:50;;;;;;;0.90;0.80;;;;;;;;;;5061122;27;87700;-66
2023/12/23 06:00:20;;;;;;;1.70;0.90;;;;;;;;;;5059726;27;89677;-66
2023/12/23 06:02:49;;;;;;;1.33;0.80;;;;;;;;;;5060330;27;88790;-66
2023/12/23 06:05:17;;;;;;;1.43;0.97;;;;;;;;;;5040079;28;88795;-66
2023/12/23 06:07:48;;;;;;;0.70;0.70;;;;;;;;;;5055990;27;87459;-66
2023/12/23 06:10:18;;;;;;;7.50;0.70;;;;;;;;;;5059574;27;88533;-66
2023/12/23 06:12:49;;;;;;;0.60;0.60;;;;;;;;;;5059443;27;90092;-66
2023/12/23 06:15:18;;;;;;;0.53;0.50;;;;;;;;;;5059811;27;88789;-66
2023/12/23 06:17:50;;;;;;;0.50;0.50;;;;;;;;;;5060147;27;87522;-66
2023/12/23 06:20:19;;;;;;;1.83;0.73;;;;;;;;;;5059313;27;89614;-66
2023/12/23 06:22:49;;;;;;;0.60;0.60;;;;;;;;;;5060413;27;89064;-66
2023/12/23 06:25:18;;;;;;;0.80;0.73;;;;;;;;;;5060270;27;88936;-66
2023/12/23 06:27:47;;;;;;;3.17;0.70;;;;;;;;;;5059525;27;87627;-66
2023/12/23 06:30:15;;;;;;;2.40;0.63;;;;;;;;;;5052055;27;89596;-66
2023/12/23 06:32:45;;;;;;;2.57;0.80;;;;;;;;;;5052397;27;88143;-66
2023/12/23 06:35:20;;;;;;;2.00;0.87;;;;;;;;;;5059949;27;88907;-66
2023/12/23 06:37:50;;;;;;;0.87;0.70;;;;;;;;;;5058464;27;87986;-66
2023/12/23 06:40:19;;;;;;;2.33;0.50;;;;;;;;;;5059474;27;90025;-66
2023/12/23 06:42:49;;;;;;;3.60;0.70;;;;;;;;;;5059743;27;89133;-66
2023/12/23 06:45:17;;;;;;;4.30;0.77;;;;;;;;;;5059295;27;89241;-66
2023/12/23 06:47:45;;;;;;;1.53;0.70;;;;;;;;;;5059944;27;87513;-66
2023/12/23 06:50:18;;;;;;;1.87;0.80;;;;;;;;;;5058935;27;90032;-66
2023/12/23 06:52:47;;;;;;;1.67;1.00;;;;;;;;;;5058898;27;89551;-66
2023/12/23 06:55:15;;;;;;;1.50;0.90;;;;;;;;;;5059752;27;88381;-66
2023/12/23 06:57:44;;;;;;;1.23;0.70;;;;;;;;;;5059331;27;87508;-66
2023/12/23 07:00:13;;;;;;;0.50;0.50;;;;;;;;;;5057677;27;89648;-66
2023/12/23 07:02:41;;;;;;;1.37;0.70;;;;;;;;;;5058550;27;90019;-66
2023/12/23 07:05:09;;;;;;;3.10;0.63;;;;;;;;;;5058393;27;89756;-66
2023/12/23 07:07:41;;;;;;;1.07;0.60;;;;;;;;;;5058923;27;87674;-66
2023/12/23 07:10:10;;;;;;;0.50;0.30;;;;;;;;;;5056899;27;89623;-66
2023/12/23 07:12:40;;;;;;;0.93;0.70;;;;;;;;;;5059007;27;89086;-67
2023/12/23 07:15:10;;;;;;;1.17;0.67;;;;;;;;;;5059499;27;89684;-66
2023/12/23 07:17:38;;;;;;;1.43;0.60;;;;;;;;;;5054567;27;88126;-66
2023/12/23 07:20:10;;;;;;;0.57;0.50;;;;;;;;;;5066497;27;89799;-65
2023/12/23 07:22:39;;;;;;;1.93;0.63;;;;;;;;;;5061738;27;89155;-65
2023/12/23 07:25:10;;;;;;;3.37;0.97;;;;;;;;;;5060381;27;87614;-69
2023/12/23 07:27:38;;;;;;;0.80;0.80;;;;;;;;;;5060001;27;88063;-69
2023/12/23 07:30:07;;;;;;;2.13;0.90;;;;;;;;;;5060019;27;91292;-69
2023/12/23 07:32:36;;;;;;;0.43;0.43;;;;;;;;;;5059329;27;89178;-69
2023/12/23 07:35:06;;;;;;;0.37;0.37;;;;;;;;;;5051543;27;88887;-69
2023/12/23 07:37:35;;;;;;;0.50;0.50;;;;;;;;;;5056380;27;87511;-69
2023/12/23 07:40:05;;;;;;;0.90;0.70;;;;;;;;;;5060198;27;89750;-70
2023/12/23 07:42:34;;;;;;;1.37;0.70;;;;;;;;;;5059941;27;89280;-69
2023/12/23 07:45:04;;;;;;;2.23;0.77;;;;;;;;;;5059799;27;88913;-69
2023/12/23 07:47:32;;;;;;;0.50;0.50;;;;;;;;;;5059469;27;87640;-69
2023/12/23 07:50:00;;;;;;;0.70;0.47;;;;;;;;;;5059387;27;89694;-69
2023/12/23 07:52:32;;;;;;;1.27;0.40;;;;;;;;;;5059057;27;90064;-69
2023/12/23 07:55:02;;;;;;;0.67;0.67;;;;;;;;;;5059925;27;89747;-68
2023/12/23 07:57:31;;;;;;;0.57;0.47;;;;;;;;;;5059903;27;87649;-69
2023/12/23 08:00:02;;;;;;;2.63;1.07;;;;;;;;;;5059191;27;89755;-69
2023/12/23 08:02:30;;;;;;;1.27;0.60;;;;;;;;;;5059341;27;88948;-68
2023/12/23 08:04:59;;;;;;;1.83;0.43;;;;;;;;;;5057422;27;88909;-68
2023/12/23 08:07:27;;;;;;;1.07;0.57;;;;;;;;;;5060116;27;87642;-68
2023/12/23 08:09:58;;;;;;;0.50;0.40;;;;;;;;;;5059122;27;89767;-69
2023/12/23 08:12:26;;;;;;;0.33;0.33;;;;;;;;;;5059121;27;88967;-70
2023/12/23 08:14:56;;;;;;;0.40;0.40;;;;;;;;;;5059084;27;88869;-70
2023/12/23 08:17:24;;;;;;;0.40;0.40;;;;;;;;;;5058746;27;87836;-69
2023/12/23 08:19:52;;;;;;;0.97;0.90;;;;;;;;;;5058094;27;89799;-68
2023/12/23 08:22:21;;;;;;;2.97;0.67;;;;;;;;;;5058016;27;89149;-69
2023/12/23 08:24:52;;;;;;;0.87;0.57;;;;;;;;;;5059095;27;88815;-68
2023/12/23 08:27:20;;;;;;;2.40;0.40;;;;;;;;;;5059101;27;88480;-69
2023/12/23 08:29:49;;;;;;;0.43;0.43;;;;;;;;;;5055717;27;89577;-69
2023/12/23 08:32:19;;;;;;;0.83;0.53;;;;;;;;;;5058584;27;89150;-68
2023/12/23 08:34:48;;;;;;;1.53;0.47;;;;;;;;;;5058707;27;87966;-68
2023/12/23 08:37:17;;;;;;;1.73;0.40;;;;;;;;;;5058089;27;87759;-68
2023/12/23 08:39:45;;;;;;;0.93;0.90;;;;;;;;;;5055127;27;89915;-68
2023/12/23 08:42:14;;;;;;;1.93;0.90;;;;;;;;;;5057210;27;90006;-68
2023/12/23 08:44:45;;;;;;;2.30;0.83;;;;;;;;;;5058026;27;89755;-68
2023/12/23 08:47:13;;;;;;;0.50;0.47;;;;;;;;;;5058074;27;87608;-68
2023/12/23 08:49:43;;;;;;;1.43;0.80;;;;;;;;;;5057966;27;90076;-68
2023/12/23 08:52:15;;;;;;;2.23;0.80;;;;;;;;;;5057034;27;92267;-68
2023/12/23 08:54:47;;;;;;;1.03;0.90;;;;;;;;;;5056935;27;88106;-68
2023/12/23 08:57:15;;;;;;;0.63;0.53;;;;;;;;;;5057695;27;87523;-68
2023/12/23 08:59:44;;;;;;;4.93;0.97;;;;;;;;;;5054948;27;89641;-68
2023/12/23 09:02:16;;;;;;;2.57;0.77;;;;;;;;;;5054867;27;89214;-68
2023/12/23 09:04:46;;;;;;;1.07;0.90;;;;;;;;;;5057078;27;88965;-68
2023/12/23 09:07:15;;;;;;;2.33;1.20;;;;;;;;;;5057804;27;88684;-68
2023/12/23 09:09:43;;;;;;;2.17;0.90;;;;;;;;;;5056838;27;89803;-68
2023/12/23 09:12:11;;;;;;;2.13;1.10;;;;;;;;;;5056890;27;89066;-68
2023/12/23 09:14:44;;;;;;;1.70;1.00;;;;;;;;;;5057194;27;88917;-67
2023/12/23 09:17:13;;;;;;;2.10;1.17;;;;;;;;;;5057109;27;87637;-67
2023/12/23 09:19:44;;;;;;;6.00;1.53;;;;;;;;;;5054943;27;91311;-68
2023/12/23 09:22:14;;;;;;;1.90;1.20;;;;;;;;;;5056574;27;88068;-67
2023/12/23 09:24:45;;;;;;;1.47;1.00;;;;;;;;;;5057477;27;88934;-67
2023/12/23 09:27:13;;;;;;;1.03;0.80;;;;;;;;;;5057159;27;87549;-68
2023/12/23 09:29:42;;;;;;;1.10;1.03;;;;;;;;;;5053937;27;89786;-69
2023/12/23 09:32:10;;;;;;;1.63;1.37;;;;;;;;;;5056193;27;89959;-69
2023/12/23 09:34:39;;;;;;;2.30;1.00;;;;;;;;;;5057453;27;89936;-69
2023/12/23 09:37:08;;;;;;;2.13;1.10;;;;;;;;;;5056001;27;87793;-68
2023/12/23 09:39:38;;;;;;;0.87;0.87;;;;;;;;;;5056414;27;88535;-68
2023/12/23 09:42:09;;;;;;;0.60;0.60;;;;;;;;;;5056902;27;89093;-68
2023/12/23 09:44:37;;;;;;;2.60;0.87;;;;;;;;;;5057550;27;88820;-67
2023/12/23 09:47:07;;;;;;;2.20;1.00;;;;;;;;;;5056869;27;87640;-68
2023/12/23 09:49:36;;;;;;;0.93;0.83;;;;;;;;;;5056906;27;89043;-68
2023/12/23 09:52:05;;;;;;;0.70;0.70;;;;;;;;;;5054967;27;89201;-68
2023/12/23 09:54:35;;;;;;;1.93;0.90;;;;;;;;;;5057242;27;89150;-68
2023/12/23 09:57:05;;;;;;;0.80;0.80;;;;;;;;;;5056910;27;88598;-68
2023/12/23 09:59:34;;;;;;;1.00;0.87;;;;;;;;;;5055656;27;89361;-69
2023/12/23 10:02:03;;;;;;;2.40;1.17;;;;;;;;;;5055711;27;91487;-68
2023/12/23 10:04:32;;;;;;;2.30;1.03;;;;;;;;;;5058221;27;88918;-68
2023/12/23 10:07:01;;;;;;;2.10;0.90;;;;;;;;;;5057909;27;87717;-67
2023/12/23 10:09:30;;;;;;;1.70;1.00;;;;;;;;;;5059075;27;89574;-70
2023/12/23 10:11:58;;;;;;;1.93;1.20;;;;;;;;;;5055248;27;89407;-68
2023/12/23 10:14:28;;;;;;;1.90;1.50;;;;;;;;;;5058656;27;87737;-70
2023/12/23 10:16:56;;;;;;;1.40;0.93;;;;;;;;;;5057876;27;87343;-69
2023/12/23 10:19:25;;;;;;;4.37;1.13;;;;;;;;;;5057922;27;89583;-74
2023/12/23 10:21:53;;;;;;;2.77;1.03;;;;;;;;;;5057110;27;90195;-67
2023/12/23 10:24:22;;;;;;;2.93;1.23;;;;;;;;;;5054291;27;89823;-71
2023/12/23 10:26:50;;;;;;;2.13;0.93;;;;;;;;;;5054709;27;88251;-69
2023/12/23 10:29:19;;;;;;;3.13;0.73;;;;;;;;;;5054656;27;88870;-67
2023/12/23 10:31:50;;;;;;;3.37;0.90;;;;;;;;;;5054482;27;88864;-68
2023/12/23 10:34:19;;;;;;;0.70;0.70;;;;;;;;;;5056025;27;88311;-67
2023/12/23 10:36:48;;;;;;;1.77;0.80;;;;;;;;;;5055530;27;87643;-67
2023/12/23 10:39:17;;;;;;;3.60;1.67;;;;;;;;;;5057927;27;88784;-68
2023/12/23 10:41:47;;;;;;;6.13;2.00;;;;;;;;;;5055098;27;89248;-72
2023/12/23 10:44:24;;;;;;;5.30;1.77;;;;;;;;;;5059496;27;88646;-69
2023/12/23 10:46:56;;;;;;;0.93;0.87;;;;;;;;;;5059698;27;87996;-72
2023/12/23 10:49:25;;;;;;;1.83;1.00;;;;;;;;;;5060744;27;88441;-70
2023/12/23 10:51:54;;;;;;;5.73;0.90;;;;;;;;;;5058332;27;88074;-69
2023/12/23 10:54:24;;;;;;;1.27;0.97;;;;;;;;;;5058548;27;88827;-71
2023/12/23 10:56:57;;;;;;;2.57;1.27;;;;;;;;;;5057940;27;89738;-72
2023/12/23 10:59:26;;;;;;;0.87;0.80;;;;;;;;;;5059064;27;89640;-72
2023/12/23 11:01:58;;;;;;;2.07;1.20;;;;;;;;;;5058126;27;89107;-73
2023/12/23 11:04:29;;;;;;;3.53;1.17;;;;;;;;;;5054452;27;90045;-69
2023/12/23 11:07:01;;;;;;;3.37;0.97;;;;;;;;;;5059647;27;87436;-67
2023/12/23 11:09:31;;;;;;;2.73;1.13;;;;;;;;;;5057551;27;89900;-68
2023/12/23 11:11:59;;;;;;;6.13;1.30;;;24.80;46.40;;;;;;5058007;27;89787;-67
2023/12/23 11:14:27;;;;;;;2.20;1.13;;;24.60;46.70;;;;;;5058956;27;89786;-66
2023/12/23 11:16:58;;;;;;;1.53;0.80;;;24.50;46.70;;;;;;5059728;27;87726;-66
2023/12/23 11:19:26;;;;;;;0.50;0.40;;;24.50;46.60;;;;;;5059504;27;89721;-66
2023/12/23 11:22:20;;;;;;;1.03;0.93;;;24.50;46.50;;;;;;5052899;27;89228;-67
2023/12/23 11:24:48;;;;;;;1.60;0.97;;;24.50;46.50;;;;;;5059589;27;88757;-72
2023/12/23 11:27:30;;;;;;;2.10;0.80;;;24.60;46.30;;;;;;5063246;27;87715;-69
2023/12/23 11:29:59;;;;;;;1.30;0.50;;;24.80;46.20;;;;;;5060257;27;89672;-68
2023/12/23 11:32:36;;;;;;;3.67;1.43;;;25.10;46.10;;;;;;5061177;27;90655;-68
2023/12/23 11:35:06;;;;;;;2.47;0.80;;;25.30;45.90;;;;;;5058749;27;89017;-67
2023/12/23 11:37:52;;;;;;;2.17;1.07;;;25.50;45.70;;;;;;5062558;27;87987;-67
2023/12/23 11:40:20;;;;;;;3.83;1.30;;;25.70;45.70;;;;;;5062718;27;89637;-67
2023/12/23 11:42:49;;;;;;;1.83;1.30;;;25.70;45.50;;;;;;5063832;27;87995;-67
2023/12/23 11:45:17;;;;;;;2.33;0.67;;;25.80;45.50;;;;;;5061840;27;89014;-67
2023/12/23 11:47:47;;;;;;;2.87;1.40;;;25.80;45.50;;;;;;5061258;27;88577;-67
2023/12/23 11:50:15;;;;;;;3.53;0.77;;;25.80;45.50;;;;;;5063701;27;89812;-66
2023/12/23 11:52:43;;;;;;;1.17;0.90;;;25.80;45.60;;;;;;5060856;27;89342;-67
2023/12/23 11:55:11;;;;;;;1.77;1.03;;;25.70;45.60;;;;;;5063141;27;88892;-67
2023/12/23 11:57:39;;;;;;;3.60;1.10;;;25.70;45.70;;;;;;5063418;27;87525;-66
2023/12/23 12:00:08;;;;;;;3.00;1.77;;;25.60;45.70;;;;;;5060251;27;89612;-66
2023/12/23 12:02:36;;;;;;;3.47;1.10;;;25.60;45.70;;;;;;5063116;27;90003;-66
2023/12/23 12:05:06;;;;;;;2.50;1.40;;;25.50;45.80;;;;;;5062811;27;89780;-68
2023/12/23 12:07:35;;;;;;;0.97;0.80;;;25.50;46.00;;;;;;5061183;27;87616;-68
2023/12/23 12:10:03;;;;;;;2.90;1.40;;;25.40;46.00;;;;;;5059761;27;89579;-68
2023/12/23 12:12:31;;;;;;;4.43;1.53;;;25.40;46.10;;;;;;5060808;27;89824;-68
2023/12/23 12:14:59;;;;;;;2.37;1.10;;;25.40;46.20;;;;;;5061076;27;89099;-68
2023/12/23 12:17:27;;;;;;;3.53;0.97;;;25.30;46.20;;;;;;5061334;27;87554;-68
2023/12/23 12:19:55;;;;;;;3.77;0.77;;;25.30;46.20;;;;;;5061657;27;89768;-68
2023/12/23 12:22:24;;;;;;;1.03;0.93;;;25.20;46.30;;;;;;5062157;27;88835;-68
2023/12/23 12:24:52;;;;;;;2.30;0.90;;;25.10;46.30;;;;;;5058421;27;88816;-68
2023/12/23 12:27:22;;;;;;;1.23;0.97;;;25.10;46.40;;;;;;5061473;27;87839;-68
2023/12/23 12:29:50;;;;;;;4.03;0.63;;;25.10;47.10;;;;;;5061113;27;90138;-68
2023/12/23 12:32:18;;;;;;;1.73;0.70;;;25.00;46.40;;;;;;5061771;27;87564;-68
2023/12/23 12:34:46;;;;;;;1.83;0.70;;;25.00;46.50;;;;;;5061417;27;88820;-68
2023/12/23 12:37:15;;;;;;;3.43;1.53;;;25.00;46.50;;;;;;5058677;27;87700;-68
2023/12/23 12:39:45;;;;;;;0.73;0.67;;;25.00;46.60;;;;;;5060745;27;89718;-68
2023/12/23 12:42:14;;;;;;;1.13;1.03;;;24.90;46.50;;;;;;5054374;27;89150;-68
2023/12/23 12:44:43;;;;;;;4.57;1.40;;;24.90;46.50;;;;;;5061520;27;89068;-68
2023/12/23 12:47:11;;;;;;;1.83;1.30;;;24.90;46.60;;;;;;5061250;27;87597;-68
2023/12/23 12:49:44;;;;;;;2.63;1.47;;;24.80;46.60;;;;;;5060669;27;89668;-67
2023/12/23 12:52:30;;;;;;;4.97;1.53;;;24.80;46.70;;;;;;5059979;27;90077;-69
2023/12/23 12:55:00;;;;;;;2.57;1.63;;;24.70;46.60;;;;;;5060059;27;89769;-68
2023/12/23 12:57:28;;;;;;;1.70;1.40;;;24.70;46.70;;;;;;5060023;27;87625;-67
2023/12/23 12:59:56;;;;;;;2.57;1.47;;;24.70;46.80;;;;;;5060112;27;89602;-68
2023/12/23 13:02:24;;;;;;;2.50;1.50;;;24.70;46.80;;;;;;5058334;27;89104;-68
2023/12/23 13:04:52;;;;;;;1.97;1.17;;;24.60;46.90;;;;;;5061481;27;88830;-68
2023/12/23 13:07:20;;;;;;;3.13;2.07;;;24.60;46.90;;;;;;5060434;27;87461;-68
2023/12/23 13:09:49;;;;;;;3.63;1.93;;;24.60;46.90;;;;;;5061268;27;89506;-68
2023/12/23 13:12:18;;;;;;;2.23;1.60;;;24.60;47.00;;;;;;5061137;27;89102;-68
2023/12/23 13:14:46;;;;;;;9.10;2.57;;;24.60;47.00;;;;;;5060786;27;88780;-67
2023/12/23 13:17:14;;;;;;;2.90;2.00;;;24.60;47.00;;;;;;5055586;27;89515;-67
2023/12/23 13:19:42;;;;;;;3.53;1.63;;;24.60;47.70;;;;;;5051350;27;89763;-67
2023/12/23 13:22:10;;;;;;;2.63;2.03;;;24.60;47.10;;;;;;5051450;27;89092;-68
2023/12/23 13:24:39;;;;;;;4.20;2.27;;;24.60;47.10;;;;;;5055430;27;88949;-68
2023/12/23 13:27:07;;;;;;;2.87;1.67;;;24.60;47.10;;;;;;5056443;27;87895;-68
2023/12/23 13:29:36;;;;;;;2.43;1.40;;;24.60;47.10;;;;;;5055478;27;88595;-68
2023/12/23 13:32:07;;;;;;;3.60;1.53;;;24.60;47.10;;;;;;5057598;27;92191;-68
2023/12/23 13:34:35;;;;;;;3.40;1.90;;;24.50;47.10;;;;;;5057606;27;88852;-68
2023/12/23 13:37:04;;;;;;;2.13;1.93;;;24.50;47.20;;;;;;5057952;27;88041;-68
2023/12/23 13:39:32;;;;;;;2.37;1.87;;;24.50;47.20;;;;;;5057018;27;89661;-68
2023/12/23 13:42:00;;;;;;;4.10;2.03;;;24.50;47.20;;;;;;5054477;27;88895;-68
2023/12/23 13:44:28;;;;;;;3.13;1.37;;;24.50;47.20;;;;;;5056884;27;88236;-68
2023/12/23 13:47:00;;;;;;;4.97;2.00;;;24.40;47.10;;;;;;5057219;27;87688;-67
2023/12/23 13:49:28;;;;;;;3.47;1.83;;;24.40;47.20;;;;;;5057354;27;88533;-68
2023/12/23 13:51:56;;;;;;;2.30;1.73;;;24.40;47.20;;;;;;5056597;27;89156;-67
2023/12/23 13:54:24;;;;;;;3.70;2.10;;;24.40;47.20;;;;;;5055879;27;87697;-67
2023/12/23 13:56:52;;;;;;;2.70;1.50;;;24.40;47.30;;;;;;5054428;27;87353;-68
2023/12/23 13:59:20;;;;;;;2.90;2.13;;;24.30;47.20;;;;;;5057105;27;89656;-67
2023/12/23 14:01:48;;;;;;;3.00;2.00;;;24.30;47.20;;;;;;5054112;27;89101;-68
2023/12/23 14:04:18;;;;;;;4.57;2.07;;;24.30;47.30;;;;;;5052809;27;91514;-67
2023/12/23 14:06:46;;;;;;;3.97;2.63;;;24.30;47.30;;;;;;5053195;27;88592;-67
2023/12/23 14:09:14;;;;;;;3.63;2.47;;;24.20;47.30;;;;;;5056739;27;89803;-69
2023/12/23 14:11:42;;;;;;;7.23;3.23;;;24.20;47.30;;;;;;5056416;27;89063;-68
2023/12/23 14:14:10;;;;;;;5.07;2.30;;;24.20;47.30;;;;;;5056196;27;87924;-68
2023/12/23 14:16:38;;;;;;;6.10;2.73;;;24.20;47.30;;;;;;5055800;27;88438;-68
2023/12/23 14:19:06;;;;;;;2.70;2.10;;;24.20;47.30;;;;;;5055124;27;89680;-70
2023/12/23 14:21:35;;;;;;;3.07;2.10;;;24.10;47.20;;;;;;5056686;27;88553;-67
2023/12/23 14:24:04;;;;;;;3.27;2.53;;;24.20;47.40;;;;;;5048385;27;88743;-67
2023/12/23 14:26:32;;;;;;;2.37;1.87;;;24.10;47.30;;;;;;5058050;27;87643;-67